AirNav   Everest Fuels
 
 621 users online  

33CA Sonora Regional Medical Center Heliport
Sonora, California, USA

GOING TO SONORA?


FAA INFORMATION EFFECTIVE 16 JUNE 2022

Location

FAA Identifier: 33CA
Lat/Long: 37-58-37.4100N 120-22-18.9800W
37-58.623500N 120-22.316333W
37.9770583,-120.3719389
(estimated)
Elevation: 2085 ft. / 636 m (estimated)
From city: 1 mile SE of SONORA, CA
Time zone: UTC -7 (UTC -8 during Standard Time)
Zip code: 95370

Heliport Operations

Heliport use: Private use. Permission required prior to landing
Activation date: 10/2019
Control tower: no
ARTCC: OAKLAND CENTER
FSS: RANCHO MURIETA FLIGHT SERVICE STATION
Attendance: 
Wind indicator: no
Segmented circle: no

Heliport Communications

WX AWOS-3 at O22 (4 nm NW): 124.65 (209-536-9384)
WX AWOS-3P at CPU (17 nm NW): 118.525 (209-736-2523)

Nearby radio navigation aids

VOR radial/distance  VOR name  Freq  Var
LINr084/30.4LINDEN VOR/DME114.8017E
MODr036/34.8MODESTO VOR/DME114.6017E

Heliport Services

Runway Information

Helipad H1

Dimensions: 50 x 50 ft. / 15 x 15 m
Surface: asphalt/concrete
Latitude: 37-58.623500N
Longitude: 120-22.316333W
Elevation: 2085.0 ft.
Traffic pattern: leftleft

Heliport Ownership and Management from official FAA records

Ownership: Privately-owned
Owner: ADVENTIST HEALTH
2100 DOUGLAS BLVD
ROSEVILLE, CA 95661
Phone 916-781-2000
Manager: NICK BOYCE
1000 GREENLEY ROAD
SONORA, CA 95370
Phone 209-536-3881

Heliport Operational Statistics

Aircraft based on the field: 1
Helicopters: 1
    

Instrument Procedures

There are no published instrument procedures at 33CA.

Some nearby airports with instrument procedures:

O22 - Columbia Airport (4 nm NW)
E45 - Pine Mountain Lake Airport (11 nm SE)
KCPU - Calaveras County Airport - Maury Rasmussen Field (17 nm NW)
O27 - Oakdale Airport (24 nm SW)
KJAQ - Westover Field / Amador County Airport (31 nm NW)
 
Loc | Ops | Rwys | IFR | FBO | Links
Com | Nav | Svcs | Stats | Notes
Aerial photo
No photo
 
Airport distance calculator
Flying to Sonora Regional Medical Center Heliport? Find the distance to fly.

From to 33CA

Sunrise and sunset
Times for 05-Jul-2022
 Local
(UTC-7)
 Zulu
(UTC)
Morning civil twilight05:1512:15
Sunrise05:4612:46
Sunset20:2603:26
Evening civil twilight20:5803:58

Current date and time
Zulu (UTC)  05-Jul-2022 07:00:50
Local (UTC-7)  05-Jul-2022 00:00:50
 
METAR
KO22 
4nm NW 
050635Z AUTO 28004KT 10SM FEW034 20/13 A2999 RMK A01
KCPU 
17nm NW 
050655Z AUTO 34005KT 10SM 20/14 A2998 RMK AO2 T01970135
TAF
KMOD 
35nm SW 
050520Z 0506/0606 32010KT P6SM BKN100
KMER 
37nm S 
050520Z 0506/0606 32009KT P6SM SKC
KSCK 
40nm W 
050520Z 0506/0606 29010KT P6SM BKN100
KMCE 
42nm S 
050520Z 0506/0606 32009KT P6SM SKC
NOTAMs
Click for the latest NOTAMs
NOTAMs are issued by the DoD/FAA and will open in a separate window not controlled by AirNav.

 

 
 

Would you like to see your business listed on this page?

 If your business provides an interesting product or service to pilots, flight crews, aircraft, or users of the Sonora Regional Medical Center Heliport, you should consider listing it here.  To start the listing process, click on the button below
 
Add a business
 

Other Pages about Sonora Regional Medical Center Heliport

Update a link
 
Copyright © AirNav, LLC. All rights reserved. Privacy Policy  Contact